Time;durP1;ratioP1;P1;durP2;ratioP2;P2;SDS_P1;SDS_P2;PMS_P1;PMS_P2;Temp;Humidity;BMP_temperature;BMP_pressure;BME280_temperature;BME280_humidity;BME280_pressure;Samples;Min_cycle;Max_cycle;Signal;HPM_P1;HPM_P2
2022/08/15 00:00:55;;;;;;;765.95;698.92;;;;;;;23.15;48.30;95746.59;5035515;28;20195;-64
2022/08/15 00:03:27;;;;;;;762.40;696.90;;;;;;;23.15;48.46;95744.69;5035481;28;20202;-64
2022/08/15 00:05:56;;;;;;;762.40;695.63;;;;;;;23.31;48.21;95733.34;5035279;28;20182;-65
2022/08/15 00:08:23;;;;;;;755.75;690.67;;;;;;;23.15;48.10;95739.34;5034652;28;20186;-64
2022/08/15 00:10:48;;;;;;;788.78;723.20;;;;;;;23.10;48.72;95739.56;5035233;28;20236;-64
2022/08/15 00:13:21;;;;;;;768.03;704.35;;;;;;;23.12;48.71;95732.00;5034834;28;20667;-64
2022/08/15 00:15:48;;;;;;;794.97;729.40;;;;;;;23.28;48.47;95742.03;5035135;28;20175;-64
2022/08/15 00:18:15;;;;;;;828.97;759.13;;;;;;;23.12;49.87;95733.91;5034529;28;20558;-64
2022/08/15 00:20:40;;;;;;;795.83;727.05;;;;;;;22.88;49.96;95734.63;5034133;28;20639;-64
2022/08/15 00:23:10;;;;;;;806.90;740.25;;;;;;;22.95;49.54;95724.19;5034301;28;20202;-64
2022/08/15 00:25:40;;;;;;;779.45;710.30;;;;;;;22.87;50.43;95734.94;5034305;28;20215;-65
2022/08/15 00:28:07;;;;;;;755.40;688.03;;;;;;;22.98;49.92;95744.09;5034705;28;20233;-65
2022/08/15 00:30:34;;;;;;;737.28;677.63;;;;;;;23.13;50.44;95740.78;5034576;28;20658;-64
2022/08/15 00:32:59;;;;;;;605.75;562.75;;;;;;;23.05;51.85;95736.34;5034583;28;20203;-64
2022/08/15 00:35:39;;;;;;;693.92;642.13;;;;;;;22.68;54.79;95749.56;5034910;28;20201;-64
2022/08/15 00:38:06;;;;;;;668.47;615.53;;;;;;;22.77;55.34;95749.50;5034595;28;20210;-64
2022/08/15 00:41:39;;;;;;;933.88;841.97;;;;;;;22.49;58.63;95753.81;5034193;28;20191;-65
2022/08/15 00:43:23;;;;;;;980.22;880.65;;;;;;;22.31;59.71;95758.53;5028785;28;20191;-64
2022/08/15 00:45:49;;;;;;;983.88;875.45;;;;;;;22.32;59.42;95752.88;5034099;28;20529;-65
2022/08/15 00:51:00;;;;;;;882.72;801.70;;;;;;;22.01;59.78;95751.69;5034089;28;20182;-64
2022/08/15 00:53:27;;;;;;;951.63;847.55;;;;;;;22.13;58.58;95757.88;5034234;28;20337;-64
2022/08/15 00:55:53;;;;;;;912.63;820.63;;;;;;;22.14;60.10;95754.09;5034151;28;20187;-65
2022/08/15 00:58:21;;;;;;;860.83;785.13;;;;;;;22.27;60.03;95762.97;5034074;28;20273;-64
2022/08/15 01:00:47;;;;;;;834.22;761.70;;;;;;;22.16;59.38;95746.56;5034009;28;20194;-64
2022/08/15 01:03:21;;;;;;;1000.90;895.40;;;;;;;21.94;57.92;95757.50;5033997;28;20186;-65
2022/08/15 01:05:49;;;;;;;1023.72;918.13;;;;;;;22.07;57.70;95751.16;5033808;28;20178;-65
2022/08/15 01:08:17;;;;;;;978.40;880.10;;;;;;;22.05;57.75;95761.38;5033543;28;20182;-64
2022/08/15 01:10:43;;;;;;;1030.80;922.88;;;;;;;22.28;56.53;95762.63;5033376;28;20178;-65
2022/08/15 01:13:10;;;;;;;902.80;821.40;;;;;;;22.46;57.00;95760.59;5033389;28;20208;-67
2022/08/15 01:15:35;;;;;;;797.90;724.60;;;;;;;22.11;59.19;95761.97;5033793;28;20814;-64
2022/08/15 01:18:01;;;;;;;832.92;762.60;;;;;;;22.19;59.44;95766.47;5033872;28;20229;-65
2022/08/15 01:20:30;;;;;;;844.95;774.70;;;;;;;21.93;60.96;95770.06;5032794;28;20306;-65
2022/08/15 01:23:19;;;;;;;800.38;732.13;;;;;;;22.13;60.08;95763.19;5033276;28;20206;-64
2022/08/15 01:25:46;;;;;;;808.78;739.88;;;;;;;21.79;60.94;95758.09;5033488;28;20199;-64
2022/08/15 01:28:17;;;;;;;798.08;732.67;;;;;;;21.81;60.75;95753.97;5033086;28;20233;-64
2022/08/15 01:30:48;;;;;;;820.20;749.58;;;;;;;21.76;60.26;95746.16;5032011;28;20186;-65
2022/08/15 01:33:14;;;;;;;878.05;800.47;;;;;;;21.71;59.78;95754.34;5033360;28;20214;-65
2022/08/15 01:35:41;;;;;;;904.75;825.65;;;;;;;21.70;59.48;95754.66;5032545;28;20179;-64
2022/08/15 01:38:19;;;;;;;886.83;810.03;;;;;;;21.95;58.86;95757.22;5033405;28;20185;-64
2022/08/15 01:41:27;;;;;;;876.08;797.97;;;;;;;21.85;59.02;95754.09;5033149;28;20171;-65
2022/08/15 01:44:10;;;;;;;876.13;797.33;;;;;;;21.77;59.54;95763.72;5033466;28;20189;-66
2022/08/15 01:46:42;;;;;;;836.45;766.08;;;;;;;21.80;59.71;95757.75;5033252;28;20182;-64
2022/08/15 01:49:17;;;;;;;729.42;674.25;;;;;;;21.91;59.84;95758.13;5033291;28;20174;-65
2022/08/15 01:51:44;;;;;;;728.97;669.70;;;;;;;21.75;60.99;95759.81;5033018;28;20188;-65
2022/08/15 01:54:12;;;;;;;749.30;686.58;;;;;;;21.74;61.27;95756.34;5032613;28;20210;-65
2022/08/15 01:56:41;;;;;;;729.63;671.55;;;;;;;21.74;61.63;95758.25;5032536;28;20610;-64
2022/08/15 01:59:12;;;;;;;688.92;631.22;;;;;;;21.67;61.57;95749.97;5032926;28;20273;-64
2022/08/15 02:01:43;;;;;;;745.40;680.80;;;;;;;21.64;62.25;95754.06;5032509;28;20206;-65
2022/08/15 02:04:12;;;;;;;786.50;718.95;;;;;;;21.67;62.09;95753.44;5032882;28;20204;-65
2022/08/15 02:06:39;;;;;;;819.42;749.45;;;;;;;21.59;62.17;95754.25;5033195;28;20199;-66
2022/08/15 02:09:07;;;;;;;805.33;738.50;;;;;;;21.49;62.74;95751.94;5032495;28;20248;-65
2022/08/15 02:11:33;;;;;;;804.55;738.90;;;;;;;21.52;62.58;95752.09;5032482;28;20183;-65
2022/08/15 02:13:59;;;;;;;782.70;717.63;;;;;;;21.64;62.36;95750.59;5032526;28;20217;-64
2022/08/15 02:16:30;;;;;;;785.75;720.55;;;;;;;21.52;62.85;95754.75;5032647;28;20236;-65
2022/08/15 02:18:56;;;;;;;791.65;726.30;;;;;;;21.51;62.53;95760.41;5032804;28;20197;-64
2022/08/15 02:21:22;;;;;;;798.95;733.40;;;;;;;21.59;62.44;95756.91;5031531;28;20586;-64
2022/08/15 02:23:47;;;;;;;801.53;734.65;;;;;;;21.52;62.77;95751.28;5032282;28;20187;-65
2022/08/15 02:26:13;;;;;;;824.20;754.40;;;;;;;21.60;62.34;95761.16;5033083;28;20201;-64
2022/08/15 02:28:40;;;;;;;786.58;719.85;;;;;;;21.78;61.84;95754.63;5032808;28;20257;-65
2022/08/15 02:31:18;;;;;;;782.80;715.92;;;;;;;21.73;61.95;95757.47;5032887;28;20306;-65
2022/08/15 02:33:50;;;;;;;784.00;718.33;;;;;;;21.61;62.31;95759.28;5032056;28;20202;-64
2022/08/15 02:36:18;;;;;;;774.05;709.15;;;;;;;21.61;62.29;95756.59;5032588;28;20550;-64
2022/08/15 02:38:45;;;;;;;775.55;710.55;;;;;;;21.56;62.38;95762.91;5032284;28;20624;-64
2022/08/15 02:41:13;;;;;;;792.88;727.08;;;;;;;21.55;62.76;95758.66;5032042;28;20182;-66
2022/08/15 02:43:45;;;;;;;786.10;722.30;;;;;;;21.65;62.62;95768.19;5030806;28;20248;-64
2022/08/15 02:46:12;;;;;;;772.60;709.35;;;;;;;21.71;62.29;95764.22;5034786;28;20174;-64
2022/08/15 02:48:39;;;;;;;797.95;731.90;;;;;;;21.62;62.68;95764.28;5035232;28;20209;-65
2022/08/15 02:51:14;;;;;;;779.72;716.58;;;;;;;21.81;62.09;95774.53;5036742;28;20692;-64
2022/08/15 02:53:51;;;;;;;792.08;725.80;;;;;;;21.65;62.96;95774.31;5020990;28;20247;-65
2022/08/15 02:56:20;;;;;;;782.10;716.97;;;;;;;21.74;62.50;95766.25;5036858;28;20208;-65
2022/08/15 02:58:46;;;;;;;776.22;709.85;;;;;;;21.70;62.82;95766.13;5036527;28;20190;-65
2022/08/15 03:01:12;;;;;;;816.38;745.25;;;;;;;21.70;63.01;95776.78;5036356;28;20632;-65
2022/08/15 03:03:39;;;;;;;856.15;780.47;;;;;;;21.53;63.64;95766.97;5036649;28;20550;-65
2022/08/15 03:06:10;;;;;;;873.00;794.78;;;;;;;21.62;63.35;95764.28;5036125;28;20273;-65
2022/08/15 03:08:37;;;;;;;878.40;798.08;;;;;;;21.58;63.54;95774.00;5036293;28;20637;-66
2022/08/15 03:11:05;;;;;;;941.42;852.15;;;;;;;21.47;64.49;95773.59;5036344;28;20194;-65
2022/08/15 03:13:31;;;;;;;957.08;864.58;;;;;;;21.42;65.02;95773.00;5035728;28;20202;-66
2022/08/15 03:15:58;;;;;;;972.00;878.85;;;;;;;21.41;64.76;95772.22;5036072;28;20197;-65
2022/08/15 03:18:26;;;;;;;989.47;892.10;;;;;;;21.35;65.27;95767.38;5036327;28;20242;-65
2022/08/15 03:20:52;;;;;;;965.35;873.45;;;;;;;21.36;65.10;95769.72;5035154;28;20694;-65
2022/08/15 03:23:19;;;;;;;976.38;883.03;;;;;;;21.33;65.05;95769.59;5041268;28;20193;-66
2022/08/15 03:25:48;;;;;;;947.85;855.97;;;;;;;21.21;65.53;95769.47;5033863;28;20278;-65
2022/08/15 03:28:18;;;;;;;976.50;882.47;;;;;;;21.32;65.14;95776.81;5035097;28;20253;-65
2022/08/15 03:30:44;;;;;;;973.97;879.67;;;;;;;21.23;65.55;95775.28;5036391;28;20269;-65
2022/08/15 03:33:09;;;;;;;989.38;890.15;;;;;;;21.25;65.30;95775.72;5035871;28;20297;-67
2022/08/15 03:35:44;;;;;;;989.85;889.95;;;;;;;21.20;65.77;95779.34;5035569;28;20209;-65
2022/08/15 03:38:10;;;;;;;994.83;893.88;;;;;;;21.35;65.26;95773.47;5035970;28;20201;-67
2022/08/15 03:40:37;;;;;;;987.80;886.95;;;;;;;21.14;66.37;95781.41;5035699;28;20190;-65
2022/08/15 03:43:12;;;;;;;982.22;886.40;;;;;;;21.29;66.15;95782.75;5035731;28;20187;-65
2022/08/15 03:45:39;;;;;;;964.85;872.42;;;;;;;21.22;66.54;95782.47;5035289;28;20190;-65
2022/08/15 03:48:06;;;;;;;956.08;865.03;;;;;;;21.16;66.91;95778.44;5035607;28;20278;-65
2022/08/15 03:50:32;;;;;;;963.95;871.47;;;;;;;21.16;67.04;95786.41;5035211;28;20647;-65
2022/08/15 03:53:03;;;;;;;981.78;888.60;;;;;;;21.05;67.75;95785.16;5035215;28;20243;-65
2022/08/15 03:55:30;;;;;;;967.55;877.70;;;;;;;21.20;67.56;95779.34;5035315;28;20187;-66
2022/08/15 03:57:57;;;;;;;968.72;877.28;;;;;;;21.02;69.12;95789.22;5034487;28;20232;-66
2022/08/15 04:00:26;;;;;;;984.65;895.85;;;;;;;20.88;71.45;95782.53;5034849;28;20194;-65
2022/08/15 04:02:53;;;;;;;955.17;870.65;;;;;;;20.98;70.90;95782.97;5035292;28;20214;-65
2022/08/15 04:05:19;;;;;;;892.70;812.75;;;;;;;21.07;70.07;95773.06;5035240;28;20186;-65
2022/08/15 04:07:44;;;;;;;841.38;772.22;;;;;;;21.12;70.16;95780.13;5034910;28;20257;-65
2022/08/15 04:10:13;;;;;;;833.35;764.38;;;;;;;20.92;71.21;95783.47;5034596;28;20585;-65
2022/08/15 04:12:41;;;;;;;844.95;775.17;;;;;;;20.80;71.36;95775.31;5034757;28;20233;-65
2022/08/15 04:15:10;;;;;;;868.03;793.88;;;;;;;20.67;72.05;95779.75;5033796;28;20667;-65
2022/08/15 04:17:35;;;;;;;857.22;785.33;;;;;;;20.81;71.21;95774.22;5035061;28;20606;-64
2022/08/15 04:20:01;;;;;;;896.03;818.90;;;;;;;20.91;70.19;95777.34;5032126;28;20195;-65
2022/08/15 04:22:36;;;;;;;955.10;869.60;;;;;;;20.86;69.91;95782.84;5032932;28;20191;-65
2022/08/15 04:25:15;;;;;;;915.25;835.20;;;;;;;20.88;69.72;95777.22;5033374;28;20244;-65
2022/08/15 04:27:41;;;;;;;929.40;850.47;;;;;;;20.85;69.71;95783.16;5034279;28;20230;-65
2022/08/15 04:30:08;;;;;;;895.00;820.25;;;;;;;20.77;70.57;95776.75;5034786;28;20492;-65
2022/08/15 04:32:34;;;;;;;846.22;777.55;;;;;;;20.94;70.18;95778.59;5034468;28;20179;-65
2022/08/15 04:35:00;;;;;;;773.05;712.67;;;;;;;20.74;71.10;95778.16;5034120;28;20207;-66
2022/08/15 04:37:29;;;;;;;787.53;725.35;;;;;;;20.81;70.88;95771.56;5034331;28;20213;-65
2022/08/15 04:39:55;;;;;;;823.17;757.20;;;;;;;20.86;70.41;95779.41;5034046;28;20647;-65
2022/08/15 04:42:21;;;;;;;789.10;727.28;;;;;;;20.85;70.79;95780.50;5034491;28;20265;-65
2022/08/15 04:44:47;;;;;;;761.17;701.03;;;;;;;20.80;71.71;95792.09;5032857;28;20248;-65
2022/08/15 04:47:14;;;;;;;726.22;668.33;;;;;;;20.84;nan;95790.38;5033784;28;20187;-65
2022/08/15 04:49:40;;;;;;;733.15;675.15;;;;;;;20.71;72.20;95791.34;5033808;28;20186;-65
2022/08/15 04:52:17;;;;;;;733.40;676.08;;;;;;;20.78;72.08;95788.19;5033914;28;20274;-65
2022/08/15 04:54:43;;;;;;;724.90;668.67;;;;;;;20.70;72.32;95793.22;5033759;28;20615;-65
2022/08/15 04:57:08;;;;;;;693.88;639.97;;;;;;;20.56;72.64;95781.16;5033973;28;20179;-65
2022/08/15 04:59:34;;;;;;;675.70;623.92;;;;;;;20.67;72.64;95791.16;5033397;28;20616;-65
2022/08/15 05:02:00;;;;;;;703.05;649.83;;;;;;;20.67;72.62;95798.41;5031328;28;20183;-65
2022/08/15 05:04:25;;;;;;;751.75;692.65;;;;;;;20.50;73.38;95796.53;5033776;28;20190;-65
2022/08/15 05:06:51;;;;;;;723.22;668.35;;;;;;;20.45;73.18;95801.22;5033850;28;20470;-65
2022/08/15 05:09:16;;;;;;;722.75;668.15;;;;;;;20.41;73.70;95798.38;5032902;28;20213;-65
2022/08/15 05:11:42;;;;;;;789.25;719.65;;;;;;;20.46;73.31;95798.22;5033028;28;20187;-65
2022/08/15 05:14:07;;;;;;;714.53;661.65;;;;;;;20.71;72.07;95794.78;5033314;28;20203;-65
2022/08/15 05:16:35;;;;;;;699.50;646.63;;;;;;;20.67;72.12;95801.81;5033919;28;20206;-66
2022/08/15 05:19:01;;;;;;;728.67;672.13;;;;;;;20.55;72.20;95798.25;5033550;28;20186;-65
2022/08/15 05:21:28;;;;;;;751.10;693.25;;;;;;;20.74;71.27;95799.47;5032846;28;20186;-65
2022/08/15 05:23:54;;;;;;;749.83;690.55;;;;;;;20.63;71.80;95797.44;5041000;28;20186;-65
2022/08/15 05:26:20;;;;;;;845.35;777.25;;;;;;;20.60;71.67;95785.56;5033530;28;20554;-64
2022/08/15 05:28:45;;;;;;;809.65;744.33;;;;;;;20.53;72.21;95792.44;5033117;28;20182;-65
2022/08/15 05:31:11;;;;;;;867.08;794.45;;;;;;;20.60;72.04;95792.75;5033388;28;20600;-65
2022/08/15 05:33:39;;;;;;;865.92;790.10;;;;;;;20.59;71.90;95793.84;5033284;28;20211;-64
2022/08/15 05:36:06;;;;;;;822.30;756.63;;;;;;;20.61;72.22;95786.34;5032731;28;20178;-64
2022/08/15 05:38:52;;;;;;;792.60;731.03;;;;;;;20.58;72.34;95781.63;5033018;28;20187;-65
2022/08/15 05:41:32;;;;;;;820.63;748.45;;;;;;;20.58;72.17;95789.59;5033016;28;20593;-65
2022/08/15 05:44:03;;;;;;;821.75;752.33;;;;;;;20.61;72.33;95797.00;5032949;28;20647;-65
2022/08/15 05:46:53;;;;;;;801.63;730.97;;;;;;;20.63;72.11;95784.91;5033380;28;20240;-65
2022/08/15 05:49:50;;;;;;;867.10;786.33;;;;;;;20.56;71.89;95783.84;5032791;28;20183;-65
2022/08/15 05:52:48;;;;;;;904.63;818.88;;;;;;;20.59;72.07;95785.84;5033313;28;20186;-65
2022/08/15 05:55:34;;;;;;;952.53;862.42;;;;;;;20.77;70.93;95789.28;5033015;28;20186;-65
2022/08/15 05:58:17;;;;;;;1003.15;905.20;;;;;;;20.39;72.45;95786.50;5032685;28;20213;-65
2022/08/15 06:00:55;;;;;;;985.40;892.22;;;;;;;20.50;71.96;95775.22;5033169;28;20182;-65
2022/08/15 06:03:26;;;;;;;975.05;885.83;;;;;;;20.63;71.70;95778.78;5032772;28;20191;-65
2022/08/15 06:05:56;;;;;;;1030.75;930.70;;;;;;;20.73;71.09;95773.16;5033223;28;20179;-66
2022/08/15 06:08:25;;;;;;;1012.72;914.33;;;;;;;20.58;71.53;95774.41;5032729;28;20186;-66
2022/08/15 06:11:02;;;;;;;983.92;891.40;;;;;;;20.70;71.18;95763.13;5031990;28;20190;-65
2022/08/15 06:13:34;;;;;;;906.95;827.20;;;;;;;20.75;71.15;95760.31;5032169;28;20281;-65
2022/08/15 06:16:06;;;;;;;960.38;873.33;;;;;;;20.69;71.99;95765.00;5032267;28;20175;-65
2022/08/15 06:18:35;;;;;;;984.38;890.28;;;;;;;20.83;72.58;95764.84;5032122;28;20617;-65
2022/08/15 06:21:30;;;;;;;973.33;873.80;;;;;;;20.53;75.96;95779.91;5031100;28;20194;-65
2022/08/15 06:24:36;;;;;;;998.75;897.70;;;;;;;20.74;74.52;95780.03;5032550;28;20179;-65
2022/08/15 06:27:21;;;;;;;969.42;878.58;;;;;;;20.73;73.73;95787.25;5009286;28;20229;-65
2022/08/15 06:30:05;;;;;;;964.95;877.10;;;;;;;20.80;73.02;95807.28;5032487;28;20174;-65
2022/08/15 06:32:43;;;;;;;925.13;846.38;;;;;;;20.88;72.22;95803.84;5031977;28;20186;-65
2022/08/15 06:35:18;;;;;;;882.80;806.80;;;;;;;20.89;72.45;95808.88;5031912;28;20198;-64
2022/08/15 06:38:08;;;;;;;823.17;752.35;;;;;;;20.86;71.26;95804.16;5032357;28;20261;-64
2022/08/15 06:40:48;;;;;;;889.08;811.72;;;;;;;20.87;73.04;95816.38;5032250;28;20267;-66
2022/08/15 06:43:14;;;;;;;951.92;863.55;;;;;;;20.81;73.36;95814.97;5032012;28;20257;-65
2022/08/15 06:45:44;;;;;;;812.97;742.65;;;;;;;21.05;70.88;95817.94;5032112;28;20225;-65
2022/08/15 06:48:16;;;;;;;853.90;781.25;;;;;;;20.89;71.47;95821.41;5031888;28;20259;-64
2022/08/15 06:50:51;;;;;;;724.25;665.40;;;;;;;21.28;68.78;95823.09;5032097;28;20175;-65
2022/08/15 06:53:25;;;;;;;628.97;579.95;;;;;;;21.07;69.88;95821.03;5032065;28;20213;-65
2022/08/15 06:55:55;;;;;;;573.13;532.00;;;;;;;21.58;67.83;95819.34;5031608;28;20198;-66
2022/08/15 06:58:47;;;;;;;600.53;556.33;;;;;;;21.68;66.67;95820.91;5031166;28;20266;-65
2022/08/15 07:01:31;;;;;;;731.55;673.53;;;;;;;21.67;65.88;95820.13;5028027;28;20693;-64
2022/08/15 07:04:18;;;;;;;769.97;705.00;;;;;;;21.85;64.97;95816.25;5031376;28;20167;-64
2022/08/15 07:06:54;;;;;;;710.38;654.30;;;;;;;21.98;64.62;95822.50;5031158;28;20186;-65
2022/08/15 07:09:34;;;;;;;690.55;639.08;;;;;;;22.45;61.99;95825.03;5031500;28;20639;-73
2022/08/15 07:12:12;;;;;;;658.50;610.17;;;;;;;22.96;60.14;95824.63;5031197;28;20187;-72
2022/08/15 07:14:54;;;;;;;619.63;574.08;;;;;;;23.66;58.25;95819.34;5030144;28;20245;-72
2022/08/15 07:17:27;;;;;;;441.55;413.83;;;;;;;24.21;55.71;95816.91;5029907;28;20171;-71
2022/08/15 07:19:54;;;;;;;435.67;408.58;;;;;;;24.66;54.78;95822.03;5028354;28;20276;-72
2022/08/15 07:22:20;;;;;;;454.45;425.17;;;;;;;24.63;54.45;95814.66;5028034;28;20564;-72
2022/08/15 07:24:52;;;;;;;459.15;429.85;;;;;;;25.00;53.08;95814.56;5031512;28;20182;-72
2022/08/15 07:27:28;;;;;;;398.52;374.30;;;;;;;25.04;52.95;95812.75;5031552;28;20231;-71
2022/08/15 07:30:19;;;;;;;396.90;372.95;;;;;;;25.33;52.49;95819.66;5031217;28;20657;-71
2022/08/15 07:32:51;;;;;;;472.05;441.58;;;;;;;24.99;52.52;95816.47;5029704;28;20178;-71
2022/08/15 07:35:22;;;;;;;494.25;462.30;;;;;;;25.13;52.28;95819.53;5030671;28;20179;-70
2022/08/15 07:37:48;;;;;;;521.03;487.38;;;;;;;24.79;52.81;95814.75;5034311;28;20182;-70
2022/08/15 07:40:26;;;;;;;506.42;474.23;;;;;;;24.62;53.61;95815.81;5027973;28;20692;-74
2022/08/15 07:42:53;;;;;;;444.10;415.27;;;;;;;24.12;54.13;95820.78;5029278;28;20705;-66
2022/08/15 07:45:40;;;;;;;460.23;430.73;;;;;;;23.88;55.12;95819.69;5030005;28;20621;-66
2022/08/15 07:48:21;;;;;;;455.05;426.15;;;;;;;24.12;53.97;95815.44;5033500;28;20643;-69
2022/08/15 07:51:22;;;;;;;467.98;438.40;;;;;;;24.43;53.29;95826.34;5031364;28;20172;-67
2022/08/15 07:53:52;;;;;;;409.90;384.67;;;;;;;24.56;52.42;95830.56;5031344;28;20252;-67
2022/08/15 07:56:18;;;;;;;400.63;374.77;;;;;;;24.47;52.54;95827.22;5034175;28;20194;-68
2022/08/15 07:58:44;;;;;;;480.70;447.45;;;;;;;24.40;52.38;95830.50;5033135;28;20183;-68
2022/08/15 08:01:31;;;;;;;465.38;434.88;;;;;;;24.58;52.06;95835.56;5034266;28;20189;-66
2022/08/15 08:04:13;;;;;;;435.05;406.05;;;;;;;24.35;52.92;95830.69;5033098;28;20378;-68
2022/08/15 08:07:22;;;;;;;367.90;343.90;;;;;;;24.26;52.73;95838.09;5032964;28;20183;-66
2022/08/15 08:09:59;;;;;;;377.75;353.75;;;;;;;24.19;52.98;95835.19;5029462;28;20198;-67
2022/08/15 08:12:52;;;;;;;396.83;371.20;;;;;;;24.67;51.97;95831.66;5032298;28;20183;-68
2022/08/15 08:15:35;;;;;;;358.98;335.33;;;;;;;24.57;52.46;95834.03;5031978;28;20178;-66
2022/08/15 08:18:12;;;;;;;474.50;442.73;;;;;;;24.83;51.80;95840.53;5031854;28;20336;-66
2022/08/15 08:20:49;;;;;;;487.02;455.83;;;;;;;25.20;50.96;95835.03;5033034;28;20877;-66
2022/08/15 08:23:33;;;;;;;450.85;421.90;;;;;;;25.63;49.54;95834.25;5034131;28;20221;-66
2022/08/15 08:26:13;;;;;;;391.00;365.05;;;;;;;25.83;48.59;95825.16;5034043;28;20636;-68
2022/08/15 08:29:03;;;;;;;440.08;409.35;;;;;;;26.04;48.17;95828.34;5034111;28;20542;-67
2022/08/15 08:31:46;;;;;;;507.27;473.95;;;;;;;25.63;47.82;95826.22;5033737;28;20197;-68
2022/08/15 08:34:36;;;;;;;584.28;539.55;;;;;;;25.64;48.57;95831.22;5029899;28;20207;-65
2022/08/15 08:37:20;;;;;;;498.23;465.23;;;;;;;25.83;48.21;95821.69;5031859;28;20177;-68
2022/08/15 08:41:24;;;;;;;398.05;370.52;;;;;;;25.60;48.08;95825.00;5033095;28;20205;-67
2022/08/15 08:43:38;;;;;;;465.15;433.70;;;;;;;25.71;48.15;95830.63;5033069;28;20196;-67
2022/08/15 08:46:13;;;;;;;374.95;350.33;;;;;;;24.97;49.83;95825.97;5033687;28;20179;-67
2022/08/15 08:48:54;;;;;;;412.92;383.60;;;;;;;24.22;50.90;95831.84;5033684;28;20659;-67
2022/08/15 08:51:37;;;;;;;394.08;365.08;;;;;;;25.13;49.55;95827.56;5033828;28;20190;-66
2022/08/15 08:54:28;;;;;;;429.75;399.25;;;;;;;25.76;47.89;95834.94;5033152;28;20206;-67
2022/08/15 08:56:57;;;;;;;370.88;345.85;;;;;;;26.01;46.56;95839.00;5033115;28;20679;-67
2022/08/15 08:59:34;;;;;;;469.27;436.75;;;;;;;26.50;45.85;95839.38;5033371;28;20186;-67
2022/08/15 09:02:27;;;;;;;394.20;367.73;;;;;;;26.96;44.54;95839.56;5033026;28;20233;-67
2022/08/15 09:04:59;;;;;;;589.25;552.05;;;;;;;27.51;43.58;95844.47;5031012;28;20248;-67
2022/08/15 09:07:30;;;;;;;648.13;607.47;;;;;;;26.74;44.37;95849.09;5033486;28;20175;-67
2022/08/15 09:10:00;;;;;;;574.38;539.78;;;;;;;26.54;44.99;95842.13;5032864;28;20179;-68
2022/08/15 09:15:30;;;;;;;532.65;498.02;;;;;;;26.63;44.40;95848.88;5033048;28;20209;-66
2022/08/15 09:18:06;;;;;;;548.83;513.78;;;;;;;26.33;45.03;95840.53;5026429;28;20585;-64
2022/08/15 09:20:34;;;;;;;783.47;729.13;;;;;;;25.72;44.98;95839.44;5022214;28;20178;-64
2022/08/15 09:23:01;;;;;;;540.83;505.17;;;;;;;25.19;46.49;95836.16;5025706;28;20187;-64
2022/08/15 09:25:30;;;;;;;542.55;508.90;;;;;;;25.76;45.54;95841.09;5024833;28;20627;-64
2022/08/15 09:28:06;;;;;;;613.63;571.13;;;;;;;26.30;43.60;95835.09;5028468;28;20219;-64
2022/08/15 09:30:32;;;;;;;719.78;669.08;;;;;;;26.18;43.66;95827.13;5026932;28;20174;-64
2022/08/15 09:33:26;;;;;;;765.83;709.70;;;;;;;26.73;42.91;95842.16;5027421;28;20555;-64
2022/08/15 09:36:30;;;;;;;704.13;647.63;;;;;;;26.67;43.17;95832.81;5028577;28;20226;-65
2022/08/15 09:39:06;;;;;;;668.88;616.28;;;;;;;27.18;42.01;95836.94;4993622;28;20306;-64
2022/08/15 09:41:55;;;;;;;446.88;416.38;;;;;;;27.29;41.45;95829.06;5033136;28;20180;-64
2022/08/15 09:44:32;;;;;;;367.42;344.33;;;;;;;26.87;42.07;95831.66;5032736;28;20205;-63
2022/08/15 09:47:16;;;;;;;313.30;294.50;;;;;;;25.83;43.76;95821.69;5032938;28;20698;-63
2022/08/15 09:50:11;;;;;;;673.42;621.30;;;;;;;26.04;44.29;95822.97;5032590;28;20186;-63
2022/08/15 09:52:55;;;;;;;693.15;636.92;;;;;;;26.60;43.03;95822.69;5032592;28;20182;-63
2022/08/15 09:55:34;;;;;;;427.08;397.63;;;;;;;26.35;42.51;95811.41;5025669;28;20182;-63
2022/08/15 09:58:14;;;;;;;364.40;340.92;;;;;;;26.21;42.46;95813.75;5032996;28;20192;-63
2022/08/15 10:00:52;;;;;;;378.35;354.30;;;;;;;25.38;44.48;95806.75;5033114;28;20174;-65
2022/08/15 10:03:24;;;;;;;588.92;546.40;;;;;;;26.57;42.14;95814.56;5021382;28;20651;-64
2022/08/15 10:06:09;;;;;;;402.67;376.65;;;;;;;26.90;41.25;95809.50;5032173;28;20944;-65
2022/08/15 10:08:53;;;;;;;264.85;249.75;;;;;;;26.91;41.49;95796.81;5032492;28;20174;-64
2022/08/15 10:11:38;;;;;;;361.30;339.55;;;;;;;27.03;43.03;95799.38;5029303;28;20195;-64
2022/08/15 10:14:14;;;;;;;828.72;761.95;;;;;;;26.48;44.74;95804.75;5031794;28;20221;-63
2022/08/15 10:16:40;;;;;;;855.90;781.70;;;;;;;25.55;46.04;95790.31;5032406;28;20257;-64
2022/08/15 10:19:08;;;;;;;819.25;746.85;;;;;;;25.57;45.03;95796.16;5026231;28;20325;-64
2022/08/15 10:21:44;;;;;;;627.35;585.45;;;;;;;25.17;46.53;95792.81;5032568;28;20277;-64
2022/08/15 10:24:28;;;;;;;594.47;555.85;;;;;;;25.80;45.39;95795.56;5031571;28;20290;-65
2022/08/15 10:27:22;;;;;;;588.00;549.40;;;;;;;26.11;44.58;95792.81;5032279;28;20234;-64
2022/08/15 10:30:10;;;;;;;780.83;718.40;;;;;;;26.16;43.59;95791.75;5029942;28;20209;-64
2022/08/15 10:32:41;;;;;;;832.22;766.20;;;;;;;25.96;44.13;95785.56;5027202;28;20171;-64
2022/08/15 10:35:27;;;;;;;742.90;683.78;;;;;;;26.42;43.65;95790.03;5032230;28;20198;-64
2022/08/15 10:37:59;;;;;;;817.88;747.95;;;;;;;25.80;45.06;95782.13;5026811;28;20186;-64
2022/08/15 10:41:11;;;;;;;575.88;538.60;;;;;;;25.76;46.57;95794.66;5030973;28;20197;-64
2022/08/15 10:43:46;;;;;;;519.08;485.80;;;;;;;25.58;47.72;95775.44;5026349;28;20787;-65
2022/08/15 10:46:30;;;;;;;492.05;459.80;;;;;;;25.31;47.97;95785.13;5032132;28;20312;-64
2022/08/15 10:49:13;;;;;;;514.03;479.98;;;;;;;25.75;46.84;95788.50;5032233;28;20187;-65
